Time;durP1;ratioP1;P1;durP2;ratioP2;P2;SDS_P1;SDS_P2;PMS_P1;PMS_P2;Temp;Humidity;BMP_temperature;BMP_pressure;BME280_temperature;BME280_humidity;BME280_pressure;Samples;Min_cycle;Max_cycle;Signal;HPM_P1;HPM_P2
2021/08/04 00:00:06;;;;;;;4.18;3.03;;;16.60;81.90;;;;;;5093550;28;20059;-82
2021/08/04 00:02:32;;;;;;;3.78;3.10;;;16.60;81.30;;;;;;5111981;28;20047;-82
2021/08/04 00:04:58;;;;;;;3.80;2.83;;;16.60;81.90;;;;;;5112207;28;20432;-82
2021/08/04 00:07:23;;;;;;;4.28;3.30;;;16.60;81.40;;;;;;5112409;28;20026;-82
2021/08/04 00:09:49;;;;;;;5.38;2.65;;;16.50;81.70;;;;;;5111414;28;20081;-82
2021/08/04 00:12:14;;;;;;;4.35;3.40;;;16.60;82.10;;;;;;5111972;28;20088;-82
2021/08/04 00:14:40;;;;;;;4.20;3.30;;;16.50;81.70;;;;;;5108365;28;20453;-82
2021/08/04 00:17:06;;;;;;;4.00;3.17;;;16.50;82.30;;;;;;5098298;28;20567;-82
2021/08/04 00:19:32;;;;;;;3.53;3.08;;;16.50;83.00;;;;;;5095655;28;20031;-82
2021/08/04 00:21:57;;;;;;;3.38;2.95;;;16.50;82.50;;;;;;5096508;28;20024;-82
2021/08/04 00:24:23;;;;;;;5.60;2.97;;;16.50;82.90;;;;;;5109326;28;20035;-82
2021/08/04 00:26:48;;;;;;;5.18;3.53;;;16.50;83.00;;;;;;5112813;28;20057;-82
2021/08/04 00:29:14;;;;;;;4.00;3.28;;;16.50;82.80;;;;;;5123884;28;20100;-82
2021/08/04 00:31:39;;;;;;;5.30;3.50;;;16.50;82.70;;;;;;5095412;28;20123;-82
2021/08/04 00:34:05;;;;;;;3.88;2.75;;;16.50;83.40;;;;;;5093810;28;20035;-82
2021/08/04 00:36:31;;;;;;;4.22;3.25;;;16.40;82.80;;;;;;5111673;28;20065;-82
2021/08/04 00:38:58;;;;;;;4.60;3.20;;;16.40;83.50;;;;;;5111538;28;20036;-81
2021/08/04 00:41:24;;;;;;;4.22;3.22;;;16.40;82.60;;;;;;5111737;28;20019;-82
2021/08/04 00:43:49;;;;;;;4.22;3.50;;;16.40;82.70;;;;;;5111510;28;20024;-81
2021/08/04 00:46:15;;;;;;;4.70;3.58;;;16.40;82.90;;;;;;5112165;28;20023;-82
2021/08/04 00:48:42;;;;;;;5.32;3.45;;;16.40;82.90;;;;;;5093097;28;20027;-82
2021/08/04 00:51:08;;;;;;;5.07;3.40;;;16.40;83.50;;;;;;5104839;28;20480;-83
2021/08/04 00:53:34;;;;;;;5.72;3.13;;;16.40;83.10;;;;;;5102081;28;20566;-84
2021/08/04 00:56:00;;;;;;;4.70;3.53;;;16.40;83.30;;;;;;5101229;28;20080;-84
2021/08/04 00:58:31;;;;;;;5.32;3.55;;;16.40;83.10;;;;;;5115916;27;20028;-84
2021/08/04 01:01:20;;;;;;;4.72;3.58;;;16.40;83.20;;;;;;5102337;28;20020;-83
2021/08/04 01:04:02;;;;;;;5.25;3.47;;;16.40;83.50;;;;;;5103283;28;20039;-82
2021/08/04 01:06:54;;;;;;;5.05;3.25;;;16.40;83.10;;;;;;5108927;28;20412;-82
2021/08/04 01:09:21;;;;;;;3.88;2.80;;;16.30;83.10;;;;;;5106765;28;20059;-82
2021/08/04 01:11:54;;;;;;;4.43;3.15;;;16.30;83.60;;;;;;5107479;27;20027;-82
2021/08/04 01:14:22;;;;;;;3.78;2.90;;;16.30;83.90;;;;;;5096772;28;20032;-82
2021/08/04 01:16:49;;;;;;;4.03;3.38;;;16.30;83.90;;;;;;5110111;27;20043;-83
2021/08/04 01:19:47;;;;;;;4.57;2.97;;;16.30;83.50;;;;;;5114675;28;20491;-83
2021/08/04 01:22:25;;;;;;;3.53;3.17;;;16.30;83.30;;;;;;5115444;28;20043;-83
2021/08/04 01:24:51;;;;;;;4.65;3.00;;;16.30;83.90;;;;;;5130405;27;20016;-82
2021/08/04 01:27:17;;;;;;;4.72;3.67;;;16.30;83.80;;;;;;5116647;27;20019;-83
2021/08/04 01:29:44;;;;;;;4.38;3.03;;;16.30;83.70;;;;;;5123429;27;20552;-83
2021/08/04 01:32:10;;;;;;;3.25;2.65;;;16.20;83.80;;;;;;5115007;28;20031;-83
2021/08/04 01:34:37;;;;;;;4.13;3.00;;;16.20;83.90;;;;;;5115197;28;20475;-83
2021/08/04 01:37:04;;;;;;;3.22;2.67;;;16.20;84.40;;;;;;5097001;28;20059;-83
2021/08/04 01:39:32;;;;;;;4.15;3.28;;;16.20;84.10;;;;;;5114535;28;20067;-83
2021/08/04 01:41:59;;;;;;;4.30;2.83;;;16.10;84.10;;;;;;5108977;28;20039;-83
2021/08/04 01:44:26;;;;;;;3.42;2.60;;;16.20;85.10;;;;;;5103628;28;20483;-83
2021/08/04 01:46:53;;;;;;;3.67;2.42;;;16.20;84.50;;;;;;5114319;28;20034;-83
2021/08/04 01:49:19;;;;;;;3.75;2.75;;;16.10;84.60;;;;;;5114821;28;20024;-82
2021/08/04 01:51:46;;;;;;;3.60;2.83;;;16.10;84.50;;;;;;5102431;28;20024;-82
2021/08/04 01:54:12;;;;;;;5.78;2.60;;;16.10;84.50;;;;;;5110015;28;20111;-82
2021/08/04 01:56:39;;;;;;;3.50;2.60;;;16.10;84.10;;;;;;5114078;28;20031;-82
2021/08/04 01:59:05;;;;;;;3.20;2.17;;;16.10;84.20;;;;;;5096163;28;20110;-82
2021/08/04 02:01:31;;;;;;;3.28;2.83;;;16.10;84.60;;;;;;5098252;28;20166;-82
2021/08/04 02:03:57;;;;;;;3.70;2.30;;;16.10;85.50;;;;;;5130620;27;20031;-83
2021/08/04 02:06:54;;;;;;;3.22;2.33;;;16.10;85.10;;;;;;5113685;28;20049;-82
2021/08/04 02:09:28;;;;;;;2.92;2.30;;;16.10;84.20;;;;;;5114134;28;20027;-83
2021/08/04 02:12:06;;;;;;;4.63;2.83;;;16.10;84.80;;;;;;5114221;27;20123;-83
2021/08/04 02:14:55;;;;;;;3.10;2.60;;;16.10;84.60;;;;;;5112313;28;20027;-82
2021/08/04 02:17:48;;;;;;;4.78;2.95;;;16.10;85.40;;;;;;5083996;28;20044;-82
2021/08/04 02:20:27;;;;;;;3.25;2.67;;;16.10;84.70;;;;;;5101548;27;20020;-82
2021/08/04 02:23:03;;;;;;;4.43;3.28;;;16.10;85.60;;;;;;5098635;28;20035;-82
2021/08/04 02:25:54;;;;;;;4.25;3.47;;;16.20;85.60;;;;;;5109013;28;20085;-82
2021/08/04 02:28:24;;;;;;;4.47;3.88;;;16.10;85.20;;;;;;5124266;27;20486;-82
2021/08/04 02:30:52;;;;;;;5.10;4.57;;;16.10;85.30;;;;;;5113218;28;20024;-82
2021/08/04 02:33:19;;;;;;;5.20;3.80;;;16.10;85.40;;;;;;5114647;27;20049;-82
2021/08/04 02:35:46;;;;;;;4.85;3.70;;;16.10;86.50;;;;;;5113638;27;20022;-82
2021/08/04 02:38:12;;;;;;;4.55;3.45;;;16.10;85.60;;;;;;5113757;27;20051;-83
2021/08/04 02:40:38;;;;;;;4.93;3.60;;;16.10;85.80;;;;;;5113060;28;20399;-82
2021/08/04 02:43:04;;;;;;;6.00;3.92;;;16.00;85.60;;;;;;5114179;28;20107;-82
2021/08/04 02:45:30;;;;;;;3.90;3.35;;;16.00;85.60;;;;;;5113217;28;20098;-82
2021/08/04 02:47:56;;;;;;;4.68;3.53;;;16.00;85.60;;;;;;5113345;27;20111;-81
2021/08/04 02:50:23;;;;;;;3.88;3.20;;;16.00;85.90;;;;;;5113428;28;20098;-82
2021/08/04 02:52:49;;;;;;;4.00;3.30;;;16.00;86.40;;;;;;5113312;28;20125;-81
2021/08/04 02:55:16;;;;;;;4.85;3.47;;;16.00;85.40;;;;;;5095556;28;20499;-81
2021/08/04 02:57:42;;;;;;;5.95;3.53;;;16.00;86.10;;;;;;5101545;28;20047;-82
2021/08/04 03:00:08;;;;;;;5.53;3.70;;;16.00;86.00;;;;;;5108240;28;20020;-81
2021/08/04 03:02:33;;;;;;;4.82;3.90;;;15.90;86.20;;;;;;5112881;28;20076;-82
2021/08/04 03:04:59;;;;;;;5.93;4.38;;;16.00;86.30;;;;;;5113092;28;20488;-82
2021/08/04 03:07:24;;;;;;;6.00;3.92;;;15.90;86.30;;;;;;5094213;28;20039;-82
2021/08/04 03:09:50;;;;;;;5.40;3.75;;;15.90;86.30;;;;;;5113414;28;20016;-82
2021/08/04 03:12:16;;;;;;;6.88;4.03;;;15.90;86.60;;;;;;5112613;28;20023;-81
2021/08/04 03:14:41;;;;;;;4.90;3.65;;;15.90;86.30;;;;;;5109388;28;20032;-82
2021/08/04 03:17:07;;;;;;;4.85;3.60;;;15.90;85.80;;;;;;5098703;28;20058;-81
2021/08/04 03:19:33;;;;;;;5.32;3.50;;;15.90;86.80;;;;;;5112828;28;20015;-82
2021/08/04 03:21:59;;;;;;;5.13;3.30;;;15.80;86.20;;;;;;5113098;28;20049;-82
2021/08/04 03:24:24;;;;;;;4.90;3.20;;;15.80;86.50;;;;;;5112732;27;20054;-83
2021/08/04 03:26:50;;;;;;;4.15;3.38;;;15.80;86.50;;;;;;5110653;27;20039;-82
2021/08/04 03:29:15;;;;;;;4.50;3.25;;;15.80;86.80;;;;;;5124754;27;20016;-83
2021/08/04 03:31:41;;;;;;;3.85;3.05;;;15.80;86.30;;;;;;5095839;28;20034;-83
2021/08/04 03:34:07;;;;;;;3.70;2.97;;;15.90;87.00;;;;;;5097944;28;20392;-83
2021/08/04 03:36:32;;;;;;;4.55;3.20;;;15.90;86.70;;;;;;5106646;28;20042;-83
2021/08/04 03:38:58;;;;;;;4.03;2.97;;;15.80;86.50;;;;;;5122708;27;20096;-83
2021/08/04 03:41:23;;;;;;;4.57;3.47;;;15.80;86.80;;;;;;5083292;28;20127;-82
2021/08/04 03:43:49;;;;;;;3.70;2.90;;;15.80;86.30;;;;;;5112499;28;20043;-82
2021/08/04 03:46:15;;;;;;;4.53;3.40;;;15.80;86.90;;;;;;5112761;28;20139;-82
2021/08/04 03:48:40;;;;;;;5.18;3.35;;;15.80;86.90;;;;;;5112245;28;20063;-83
2021/08/04 03:51:06;;;;;;;5.13;3.35;;;15.80;87.00;;;;;;5112037;28;20028;-84
2021/08/04 03:53:32;;;;;;;5.03;3.55;;;15.80;87.00;;;;;;5112145;28;20399;-84
2021/08/04 03:55:57;;;;;;;4.78;3.28;;;15.80;87.00;;;;;;5093706;28;20024;-84
2021/08/04 03:58:23;;;;;;;4.43;3.35;;;15.80;87.40;;;;;;5112531;28;20376;-82
2021/08/04 04:00:48;;;;;;;4.00;3.33;;;15.80;87.20;;;;;;5112639;28;20016;-83
2021/08/04 04:03:14;;;;;;;5.63;3.50;;;15.80;87.20;;;;;;5111969;28;20031;-82
2021/08/04 04:05:40;;;;;;;4.78;3.42;;;15.80;87.00;;;;;;5111677;28;20041;-83
2021/08/04 04:08:05;;;;;;;4.38;3.30;;;15.80;87.60;;;;;;5093761;28;20027;-83
2021/08/04 04:10:31;;;;;;;4.32;3.42;;;15.80;87.20;;;;;;5112035;28;20024;-83
2021/08/04 04:12:57;;;;;;;5.38;3.25;;;15.80;87.40;;;;;;5094167;28;20667;-83
2021/08/04 04:15:22;;;;;;;5.47;3.45;;;15.80;87.20;;;;;;5102771;28;20042;-83
2021/08/04 04:17:48;;;;;;;4.00;3.30;;;15.80;88.30;;;;;;5100038;28;20036;-83
2021/08/04 04:20:14;;;;;;;3.88;3.28;;;15.80;87.10;;;;;;5099372;28;20023;-83
2021/08/04 04:22:44;;;;;;;4.50;3.25;;;15.80;87.30;;;;;;5127732;27;20067;-83
2021/08/04 04:25:12;;;;;;;5.55;3.30;;;15.80;87.40;;;;;;5094222;28;20048;-83
2021/08/04 04:27:39;;;;;;;3.33;2.80;;;15.80;87.40;;;;;;5100945;27;20126;-83
2021/08/04 04:30:06;;;;;;;4.65;3.10;;;15.80;87.30;;;;;;5110278;28;20062;-83
2021/08/04 04:32:31;;;;;;;4.35;3.42;;;15.80;87.90;;;;;;5100057;28;20016;-83
2021/08/04 04:34:57;;;;;;;5.15;2.83;;;15.70;87.60;;;;;;5096949;28;20024;-83
2021/08/04 04:37:22;;;;;;;3.40;2.83;;;15.70;87.60;;;;;;5127646;27;20635;-83
2021/08/04 04:39:48;;;;;;;4.03;2.90;;;15.70;88.10;;;;;;5111268;28;20019;-84
2021/08/04 04:42:14;;;;;;;4.80;3.00;;;15.70;88.10;;;;;;5093362;28;20106;-83
2021/08/04 04:44:39;;;;;;;4.05;3.05;;;15.80;87.90;;;;;;5111631;27;20120;-83
2021/08/04 04:47:05;;;;;;;3.53;2.70;;;15.70;87.70;;;;;;5111526;28;20031;-83
2021/08/04 04:49:31;;;;;;;4.40;3.08;;;15.70;87.90;;;;;;5111481;28;20031;-84
2021/08/04 04:51:56;;;;;;;5.30;3.08;;;15.70;87.80;;;;;;5096365;28;20031;-83
2021/08/04 04:54:22;;;;;;;3.50;2.85;;;15.70;88.40;;;;;;5108893;28;20561;-83
2021/08/04 04:56:47;;;;;;;4.55;3.20;;;15.60;88.30;;;;;;5093039;28;20039;-83
2021/08/04 04:59:13;;;;;;;5.03;2.92;;;15.60;88.30;;;;;;5111668;28;20098;-83
2021/08/04 05:01:39;;;;;;;5.15;3.10;;;15.60;87.90;;;;;;5127172;28;20042;-83
2021/08/04 05:04:04;;;;;;;3.30;2.42;;;15.60;88.10;;;;;;5093494;28;20402;-83
2021/08/04 05:06:30;;;;;;;3.38;2.50;;;15.60;88.20;;;;;;5111383;28;20035;-83
2021/08/04 05:08:56;;;;;;;3.72;2.80;;;15.60;88.10;;;;;;5111297;28;20023;-83
2021/08/04 05:11:22;;;;;;;4.13;2.88;;;15.60;88.40;;;;;;5110985;28;20030;-83
2021/08/04 05:13:48;;;;;;;2.97;2.40;;;15.60;88.10;;;;;;5095598;28;20028;-82
2021/08/04 05:16:13;;;;;;;3.33;2.55;;;15.60;88.30;;;;;;5111426;28;20055;-83
2021/08/04 05:18:39;;;;;;;4.78;2.50;;;15.60;88.10;;;;;;5110788;28;20056;-84
2021/08/04 05:21:04;;;;;;;3.10;2.42;;;15.50;88.60;;;;;;5093349;28;20399;-84
2021/08/04 05:23:30;;;;;;;3.55;2.90;;;15.50;88.40;;;;;;5088605;28;20395;-84
2021/08/04 05:25:56;;;;;;;3.33;2.38;;;15.50;87.90;;;;;;5111384;28;20028;-83
2021/08/04 05:28:22;;;;;;;2.90;2.35;;;15.50;89.00;;;;;;5094392;28;20035;-83
2021/08/04 05:30:47;;;;;;;4.22;2.90;;;15.50;88.80;;;;;;5110817;28;20483;-83
2021/08/04 05:33:13;;;;;;;2.95;2.47;;;15.50;88.80;;;;;;5091724;28;20047;-81
2021/08/04 05:35:39;;;;;;;4.07;2.55;;;15.50;89.00;;;;;;5109859;28;20027;-82
2021/08/04 05:38:05;;;;;;;4.20;2.78;;;15.50;89.40;;;;;;5110705;28;20039;-83
2021/08/04 05:40:30;;;;;;;4.93;2.67;;;15.50;89.10;;;;;;5112780;28;20031;-83
2021/08/04 05:42:56;;;;;;;4.47;2.90;;;15.40;89.00;;;;;;5097081;28;20035;-84
2021/08/04 05:45:21;;;;;;;3.50;3.10;;;15.40;90.00;;;;;;5087595;28;20020;-85
2021/08/04 05:47:47;;;;;;;3.55;2.72;;;15.30;89.60;;;;;;5107066;28;20035;-85
2021/08/04 05:50:13;;;;;;;3.17;2.65;;;15.30;90.00;;;;;;5114754;28;20558;-84
2021/08/04 05:52:38;;;;;;;5.10;3.30;;;15.30;90.40;;;;;;5114670;28;20027;-85
2021/08/04 05:55:05;;;;;;;4.78;3.13;;;15.30;90.30;;;;;;5115280;28;20051;-86
2021/08/04 05:57:31;;;;;;;5.30;3.53;;;15.20;90.30;;;;;;5114204;28;20038;-85
2021/08/04 05:59:56;;;;;;;4.82;3.15;;;15.20;90.60;;;;;;5114451;28;20477;-85
2021/08/04 06:02:22;;;;;;;4.45;2.60;;;15.20;90.40;;;;;;5113566;28;20023;-84
2021/08/04 06:04:49;;;;;;;4.28;3.13;;;15.20;90.70;;;;;;5096685;28;20027;-83
2021/08/04 06:07:14;;;;;;;2.88;2.30;;;15.20;90.70;;;;;;5115171;28;20031;-84
2021/08/04 06:09:40;;;;;;;3.00;2.58;;;15.20;91.00;;;;;;5114123;28;20031;-84
2021/08/04 06:12:06;;;;;;;3.83;2.50;;;15.20;90.80;;;;;;5095716;28;20468;-84
2021/08/04 06:14:32;;;;;;;3.78;2.60;;;15.20;91.10;;;;;;5114201;28;20534;-84
2021/08/04 06:16:57;;;;;;;3.63;2.83;;;15.20;91.10;;;;;;5113845;28;20078;-84
2021/08/04 06:19:23;;;;;;;5.38;3.00;;;15.20;91.10;;;;;;5098057;28;20055;-85
2021/08/04 06:21:49;;;;;;;3.83;2.70;;;15.20;91.00;;;;;;5095313;28;20399;-84
2021/08/04 06:24:14;;;;;;;4.68;3.00;;;15.20;90.90;;;;;;5095548;28;20475;-84
2021/08/04 06:26:40;;;;;;;4.45;2.85;;;15.20;90.70;;;;;;5129609;27;20520;-84
2021/08/04 06:29:06;;;;;;;3.00;2.55;;;15.20;91.10;;;;;;5114053;28;20024;-85
2021/08/04 06:31:31;;;;;;;3.83;2.55;;;15.20;91.10;;;;;;5113565;28;20026;-85
2021/08/04 06:33:57;;;;;;;3.05;2.25;;;15.20;91.60;;;;;;5104222;27;20027;-84
2021/08/04 06:36:22;;;;;;;3.60;2.75;;;15.30;91.60;;;;;;5109412;27;20031;-85
2021/08/04 06:38:48;;;;;;;4.20;2.40;;;15.20;91.70;;;;;;5124580;27;20089;-84
2021/08/04 06:41:14;;;;;;;3.63;2.47;;;15.30;91.60;;;;;;5119340;27;20390;-84
2021/08/04 06:43:39;;;;;;;3.15;2.22;;;15.30;91.20;;;;;;5096433;28;20554;-85
2021/08/04 06:46:10;;;;;;;3.00;2.30;;;15.30;91.10;;;;;;5123969;27;20028;-84
2021/08/04 06:48:35;;;;;;;2.67;2.40;;;15.40;91.30;;;;;;5113352;28;20552;-88
2021/08/04 06:51:01;;;;;;;3.13;2.10;;;15.30;91.10;;;;;;5098424;27;20015;-84
2021/08/04 06:53:26;;;;;;;2.53;2.05;;;15.40;91.40;;;;;;5122879;27;20026;-88
2021/08/04 06:55:52;;;;;;;2.40;1.85;;;15.30;91.30;;;;;;5098572;28;20080;-89
2021/08/04 06:58:18;;;;;;;2.50;1.77;;;15.30;91.60;;;;;;5114497;28;20551;-88
2021/08/04 07:00:43;;;;;;;2.50;2.10;;;15.40;91.90;;;;;;5101862;28;20050;-90
2021/08/04 07:03:09;;;;;;;3.20;1.80;;;15.40;91.50;;;;;;5090989;28;20399;-90
2021/08/04 07:05:34;;;;;;;2.83;2.00;;;15.40;92.20;;;;;;5111715;28;20023;-89
2021/08/04 07:08:00;;;;;;;3.03;2.20;;;15.40;91.50;;;;;;5100326;28;20027;-90
2021/08/04 07:10:26;;;;;;;2.95;2.47;;;15.40;91.60;;;;;;5114561;28;20058;-88
2021/08/04 07:12:51;;;;;;;2.70;2.05;;;15.40;91.30;;;;;;5094483;27;20031;-82
2021/08/04 07:15:17;;;;;;;2.42;1.98;;;15.50;91.60;;;;;;5110126;27;20047;-85
2021/08/04 07:17:50;;;;;;;2.40;1.95;;;15.50;91.70;;;;;;5122777;27;20035;-90
2021/08/04 07:20:19;;;;;;;2.80;2.05;;;15.50;91.60;;;;;;5111855;27;20023;-91
2021/08/04 07:22:45;;;;;;;3.95;2.00;;;15.50;91.90;;;;;;5106109;27;20388;-89
2021/08/04 07:25:12;;;;;;;2.38;1.88;;;15.50;91.30;;;;;;5125912;27;20491;-86
2021/08/04 07:27:38;;;;;;;2.55;2.00;;;15.50;91.50;;;;;;5121556;27;20049;-88
2021/08/04 07:30:07;;;;;;;3.00;2.17;;;15.60;91.40;;;;;;5106167;27;20159;-86
2021/08/04 07:32:33;;;;;;;2.97;1.98;;;15.60;91.40;;;;;;5112305;27;20491;-90
2021/08/04 07:35:01;;;;;;;3.35;2.10;;;15.70;91.30;;;;;;5103984;27;20469;-87
2021/08/04 07:37:28;;;;;;;3.38;2.10;;;15.70;91.40;;;;;;5102576;27;20118;-88
2021/08/04 07:39:55;;;;;;;2.47;2.28;;;15.70;91.70;;;;;;5116993;27;20028;-87
2021/08/04 07:42:21;;;;;;;2.92;2.00;;;15.60;91.40;;;;;;5117110;27;20019;-93
2021/08/04 07:44:47;;;;;;;2.60;2.05;;;15.60;91.60;;;;;;5118353;27;20020;-89
2021/08/04 07:47:13;;;;;;;2.75;2.33;;;15.60;91.70;;;;;;5116554;27;20023;-89
2021/08/04 07:49:38;;;;;;;3.25;2.22;;;15.60;91.70;;;;;;5119608;27;20062;-87
2021/08/04 07:52:04;;;;;;;3.05;2.00;;;15.50;91.60;;;;;;5117889;27;20026;-86
2021/08/04 07:54:30;;;;;;;2.45;2.03;;;15.50;91.90;;;;;;5113912;27;20027;-90
2021/08/04 07:56:55;;;;;;;2.95;2.20;;;15.50;92.00;;;;;;5104362;27;20588;-90
2021/08/04 07:59:21;;;;;;;2.53;1.80;;;15.60;92.30;;;;;;5121665;27;20028;-88
2021/08/04 08:01:46;;;;;;;2.13;1.92;;;15.50;92.00;;;;;;5127945;27;20027;-87
2021/08/04 08:04:12;;;;;;;2.30;1.80;;;15.50;91.70;;;;;;5126429;27;20019;-88
2021/08/04 08:06:38;;;;;;;2.33;1.70;;;15.60;92.20;;;;;;5100980;28;20092;-91
2021/08/04 08:09:03;;;;;;;2.35;1.63;;;15.60;91.50;;;;;;5101713;27;20027;-88
2021/08/04 08:11:29;;;;;;;4.32;1.75;;;15.60;92.00;;;;;;5123726;27;20376;-90
2021/08/04 08:13:55;;;;;;;2.13;1.55;;;15.60;91.80;;;;;;5126362;27;20028;-89
2021/08/04 08:16:20;;;;;;;2.35;1.60;;;15.60;91.80;;;;;;5127851;27;20047;-87
2021/08/04 08:18:46;;;;;;;2.13;1.60;;;15.70;92.50;;;;;;5124269;27;20023;-90
2021/08/04 08:21:12;;;;;;;1.98;1.60;;;15.70;91.70;;;;;;5103741;28;20030;-89
2021/08/04 08:23:37;;;;;;;1.92;1.58;;;15.70;92.10;;;;;;5123606;27;20084;-93
2021/08/04 08:26:03;;;;;;;2.80;1.67;;;15.70;92.10;;;;;;5123961;28;20092;-88
2021/08/04 08:28:29;;;;;;;1.45;1.30;;;15.60;91.80;;;;;;5126834;28;20494;-88
2021/08/04 08:30:54;;;;;;;1.70;1.38;;;15.70;92.60;;;;;;5106068;28;20019;-89
2021/08/04 08:33:20;;;;;;;1.70;1.50;;;15.70;92.40;;;;;;5107373;28;20069;-87
2021/08/04 08:35:46;;;;;;;2.25;1.45;;;15.70;92.20;;;;;;5118329;28;20019;-87
2021/08/04 08:38:12;;;;;;;1.33;1.23;;;15.70;92.50;;;;;;5108106;28;20045;-82
2021/08/04 08:40:37;;;;;;;2.30;1.63;;;15.70;92.00;;;;;;5118751;28;20024;-88
2021/08/04 08:43:04;;;;;;;2.20;1.45;;;15.70;92.70;;;;;;5118067;28;20043;-86
2021/08/04 08:45:30;;;;;;;1.83;1.33;;;15.80;92.60;;;;;;5106069;28;20049;-89
2021/08/04 08:47:56;;;;;;;1.67;1.20;;;15.80;92.10;;;;;;5123326;28;20027;-89
2021/08/04 08:50:25;;;;;;;2.03;1.23;;;15.90;92.50;;;;;;5107322;28;20027;-89
2021/08/04 08:52:53;;;;;;;1.92;1.58;;;15.90;92.50;;;;;;5124711;28;20652;-89
2021/08/04 08:55:19;;;;;;;2.20;1.33;;;15.90;92.30;;;;;;5118303;27;20492;-86
2021/08/04 08:57:44;;;;;;;1.70;1.05;;;15.90;91.90;;;;;;5121618;28;20479;-90
2021/08/04 09:00:11;;;;;;;1.55;1.00;;;15.90;92.20;;;;;;5103003;28;20025;-90
2021/08/04 09:02:36;;;;;;;1.35;1.08;;;15.90;92.30;;;;;;5097965;28;20514;-89
2021/08/04 09:05:08;;;;;;;1.45;1.15;;;16.00;92.00;;;;;;5103403;28;20027;-88
2021/08/04 09:07:36;;;;;;;2.28;1.10;;;16.10;92.10;;;;;;5116893;27;20053;-83
2021/08/04 09:10:33;;;;;;;2.13;1.33;;;16.10;91.70;;;;;;5119049;28;20479;-83
2021/08/04 09:13:02;;;;;;;1.35;1.08;;;16.10;91.60;;;;;;5110449;28;20043;-83
2021/08/04 09:15:29;;;;;;;2.65;1.20;;;16.10;91.80;;;;;;5120485;27;20050;-92
2021/08/04 09:18:09;;;;;;;1.75;1.20;;;16.10;91.80;;;;;;5123323;27;20043;-93
2021/08/04 09:20:53;;;;;;;1.55;1.33;;;16.00;92.00;;;;;;5129637;27;20023;-96
2021/08/04 09:23:24;;;;;;;2.55;1.70;;;16.00;91.90;;;;;;5127049;27;20023;-89
2021/08/04 09:26:10;;;;;;;1.83;1.40;;;16.10;92.20;;;;;;5131299;27;20476;-92
2021/08/04 09:29:07;;;;;;;1.90;1.40;;;16.20;92.30;;;;;;5130539;27;20056;-93
2021/08/04 09:31:52;;;;;;;2.22;1.60;;;16.20;92.30;;;;;;5123914;27;20424;-91
2021/08/04 09:34:35;;;;;;;1.95;1.75;;;16.30;92.30;;;;;;5110620;27;20026;-88
2021/08/04 09:37:21;;;;;;;1.98;1.48;;;16.30;91.90;;;;;;5124477;27;20070;-91
2021/08/04 09:39:56;;;;;;;2.17;1.55;;;16.30;92.50;;;;;;5104073;27;20122;-93
2021/08/04 09:42:38;;;;;;;2.40;1.70;;;16.30;92.20;;;;;;5105441;27;20032;-93
2021/08/04 09:45:04;;;;;;;2.78;1.75;;;16.40;92.40;;;;;;5111783;27;20031;-91
2021/08/04 09:47:31;;;;;;;2.08;1.70;;;16.50;92.10;;;;;;5126459;27;20479;-94
2021/08/04 09:50:04;;;;;;;2.40;1.50;;;16.50;92.00;;;;;;5133809;27;20023;-93
2021/08/04 09:52:30;;;;;;;2.83;1.70;;;16.70;92.00;;;;;;5132788;27;20030;-92
2021/08/04 09:55:11;;;;;;;1.83;1.65;;;16.60;91.60;;;;;;5124055;27;20027;-95
2021/08/04 09:57:44;;;;;;;1.73;1.50;;;16.70;91.70;;;;;;5105225;27;20039;-90
2021/08/04 10:00:13;;;;;;;1.90;1.50;;;16.70;91.60;;;;;;5109378;27;20015;-89
2021/08/04 10:02:39;;;;;;;2.53;1.90;;;16.90;91.60;;;;;;5109671;27;20023;-91
2021/08/04 10:05:26;;;;;;;2.45;1.60;;;16.90;91.30;;;;;;5126608;27;20365;-88
2021/08/04 10:08:01;;;;;;;2.00;1.70;;;16.90;91.10;;;;;;5126451;27;20121;-92
2021/08/04 10:10:38;;;;;;;3.35;1.80;;;16.90;91.20;;;;;;5131206;27;20024;-95
2021/08/04 10:13:05;;;;;;;2.53;1.83;;;17.00;91.00;;;;;;5133456;27;20027;-95
2021/08/04 10:15:39;;;;;;;2.72;1.67;;;17.00;90.70;;;;;;5124316;27;20052;-93
2021/08/04 10:18:07;;;;;;;2.05;1.63;;;17.00;91.10;;;;;;5131072;27;20035;-94
2021/08/04 10:20:34;;;;;;;2.33;1.75;;;17.30;91.60;;;;;;5127343;27;20019;-94
2021/08/04 10:23:00;;;;;;;1.58;1.48;;;17.40;91.00;;;;;;5135049;27;20046;-86
2021/08/04 10:25:26;;;;;;;1.70;1.48;;;17.60;90.90;;;;;;5135999;27;20516;-89
2021/08/04 10:27:52;;;;;;;1.98;1.70;;;17.90;90.70;;;;;;5125771;27;20036;-87
2021/08/04 10:30:18;;;;;;;2.03;1.65;;;17.90;89.70;;;;;;5133081;27;20027;-88
2021/08/04 10:32:43;;;;;;;1.70;1.58;;;17.80;89.20;;;;;;5105264;27;20034;-91
2021/08/04 10:35:10;;;;;;;3.08;1.92;;;17.80;88.60;;;;;;5106327;27;20038;-88
2021/08/04 10:37:39;;;;;;;1.83;1.58;;;17.90;89.00;;;;;;5106673;27;20073;-88
2021/08/04 10:40:06;;;;;;;3.50;1.98;;;18.00;90.30;;;;;;5110576;27;20019;-87
2021/08/04 10:42:41;;;;;;;1.90;1.60;;;18.20;90.00;;;;;;5123479;27;20046;-88
2021/08/04 10:45:22;;;;;;;2.67;1.77;;;18.10;88.50;;;;;;5105771;28;20027;-88
2021/08/04 10:47:51;;;;;;;2.20;1.70;;;18.00;88.50;;;;;;5103735;28;20024;-85
2021/08/04 10:50:18;;;;;;;2.70;1.50;;;18.00;89.50;;;;;;5098274;28;20046;-84
2021/08/04 10:53:10;;;;;;;2.25;1.70;;;18.10;89.00;;;;;;5097721;27;20468;-81
2021/08/04 10:55:57;;;;;;;2.55;1.77;;;18.20;88.70;;;;;;5106665;28;20122;-83
2021/08/04 10:58:22;;;;;;;1.88;1.65;;;18.30;89.00;;;;;;5110572;28;20036;-85
2021/08/04 11:00:48;;;;;;;1.92;1.50;;;18.30;87.20;;;;;;5114055;27;20035;-82
2021/08/04 11:03:35;;;;;;;2.00;1.70;;;18.30;87.50;;;;;;5113278;27;20038;-83
2021/08/04 11:06:10;;;;;;;1.83;1.50;;;18.40;87.60;;;;;;5118714;27;20030;-82
2021/08/04 11:08:36;;;;;;;2.03;1.50;;;18.30;87.40;;;;;;5126032;27;20038;-81
2021/08/04 11:11:02;;;;;;;2.95;1.60;;;18.30;87.40;;;;;;5125978;27;20019;-81
2021/08/04 11:13:45;;;;;;;1.80;1.60;;;18.10;85.50;;;;;;5121594;27;20054;-80
2021/08/04 11:16:34;;;;;;;2.47;1.50;;;18.00;86.40;;;;;;5121180;27;20035;-82
2021/08/04 11:19:10;;;;;;;2.83;1.70;;;17.90;87.80;;;;;;5126676;27;20045;-83
2021/08/04 11:21:37;;;;;;;2.50;1.58;;;18.10;87.80;;;;;;5102758;27;20402;-83
2021/08/04 11:24:06;;;;;;;2.28;1.60;;;18.30;86.80;;;;;;5106538;27;20110;-82
2021/08/04 11:26:37;;;;;;;1.83;1.48;;;18.20;86.30;;;;;;5122969;27;20035;-80
2021/08/04 11:29:04;;;;;;;1.70;1.20;;;18.20;86.80;;;;;;5126996;27;20036;-87
2021/08/04 11:31:30;;;;;;;1.45;1.35;;;18.30;86.40;;;;;;5124110;27;20016;-82
2021/08/04 11:34:01;;;;;;;1.67;1.30;;;18.50;87.10;;;;;;5102345;28;20110;-81
2021/08/04 11:36:31;;;;;;;1.90;1.50;;;18.40;85.80;;;;;;5111064;27;20050;-84
2021/08/04 11:39:04;;;;;;;1.50;1.40;;;18.30;85.40;;;;;;5103623;27;20114;-79
2021/08/04 11:41:34;;;;;;;1.90;1.40;;;18.10;85.20;;;;;;5123575;27;20107;-81
2021/08/04 11:44:09;;;;;;;1.90;1.40;;;18.20;86.50;;;;;;5119567;27;20112;-83
2021/08/04 11:46:41;;;;;;;1.75;1.42;;;18.30;86.50;;;;;;5125034;27;20086;-84
2021/08/04 11:49:19;;;;;;;2.60;1.25;;;18.40;87.50;;;;;;5104276;27;20391;-85
2021/08/04 11:51:51;;;;;;;2.00;1.33;;;18.60;86.90;;;;;;5126112;27;20030;-83
2021/08/04 11:54:29;;;;;;;2.55;1.38;;;18.70;84.60;;;;;;5122983;27;20090;-84
2021/08/04 11:56:55;;;;;;;1.77;1.50;;;18.60;85.20;;;;;;5119813;27;20023;-81
2021/08/04 11:59:21;;;;;;;2.10;1.35;;;18.50;84.40;;;;;;5122885;27;20507;-83
2021/08/04 12:01:58;;;;;;;2.80;1.65;;;18.40;85.10;;;;;;5104684;27;20025;-88
2021/08/04 12:04:24;;;;;;;2.45;1.50;;;18.40;86.00;;;;;;5106090;27;20061;-88
2021/08/04 12:07:10;;;;;;;1.60;1.45;;;18.50;86.00;;;;;;5100265;27;20043;-89
2021/08/04 12:09:38;;;;;;;1.88;1.60;;;18.50;86.20;;;;;;5122239;27;20419;-84
2021/08/04 12:12:06;;;;;;;1.40;1.20;;;18.40;84.70;;;;;;5118335;27;20028;-84
2021/08/04 12:14:33;;;;;;;1.88;1.60;;;18.30;86.00;;;;;;5105529;27;20067;-83
2021/08/04 12:17:02;;;;;;;4.22;1.45;;;18.30;85.40;;;;;;5123363;27;20035;-92
2021/08/04 12:19:36;;;;;;;1.67;1.38;;;18.30;85.80;;;;;;5122108;27;20451;-89
2021/08/04 12:22:04;;;;;;;1.80;1.50;;;18.30;86.60;;;;;;5121037;28;20016;-91
2021/08/04 12:24:37;;;;;;;1.40;1.30;;;18.30;85.70;;;;;;5120176;27;20020;-93
2021/08/04 12:27:02;;;;;;;2.03;1.60;;;18.40;87.00;;;;;;5122572;27;20498;-92
2021/08/04 12:29:28;;;;;;;2.25;1.55;;;18.40;85.50;;;;;;5122637;27;20042;-96
2021/08/04 12:32:23;;;;;;;1.85;1.50;;;18.50;85.70;;;;;;5126244;27;20055;-94
2021/08/04 12:34:59;;;;;;;2.10;1.45;;;18.30;84.00;;;;;;5127454;28;20035;-92
2021/08/04 12:37:27;;;;;;;1.35;1.17;;;18.20;84.70;;;;;;5133029;28;20497;-93
2021/08/04 12:40:02;;;;;;;2.47;1.33;;;18.30;84.50;;;;;;5126393;28;20030;-93
2021/08/04 12:42:28;;;;;;;2.75;1.50;;;18.40;84.60;;;;;;5120816;28;20027;-92
2021/08/04 12:45:18;;;;;;;2.00;1.30;;;18.40;85.30;;;;;;5120382;28;20023;-94
2021/08/04 12:48:01;;;;;;;1.25;1.00;;;18.50;84.90;;;;;;5117918;28;20099;-96
2021/08/04 12:50:28;;;;;;;;;;;18.60;84.80;;;;;;5128618;27;20031;-87
2021/08/04 12:52:54;;;;;;;2.63;1.50;;;18.70;83.50;;;;;;5113463;27;19918;-90
2021/08/04 12:55:20;;;;;;;1.40;1.17;;;18.70;82.90;;;;;;5132823;27;20094;-90